PINE FLAT DAM (PNF)

Elevation: 970' · KINGS R basin · Operator: US Army Corps of Engineers

Provisional data, subject to change.
Query executed Thursday at 15:03:28   clock

Select a sensor type for a plot of data.
Note: Reservoir Flows are daily averages.

Earlier

Date RES ELE    STORAGE    RES CHG    TOC STO    ABV TOC    OUTFLOW    INFLOW    FNF    PPT INC    PPTINC4    TEMP MN    TEMP MX    WINDLEN    EVP PAN   
 FEET   AF   AF   AF   AF   CFS   CFS   CFS   INCHES   INCHES   DEG F   DEG F   MILES   INCHES  
07/26/2016 816.28 370129 -8403 934426 -564297 5417 1214 655 0.00 0.00 -- -- 50 0.29
07/27/2016 813.86 361754 -8375 950820 -589066 5339 1150 722 0.00 0.00 -- -- 53 0.30
07/28/2016 811.39 353310 -8444 967213 -613903 5332 1106 523 0.00 0.00 -- -- 49 0.28
07/29/2016 809.01 345272 -8038 983606 -638334 5292 1271 592 0.00 0.00 -- -- 49 0.29
07/30/2016 806.49 336866 -8406 1000000 -663134 5152 944 590 e 0.00 0.00 -- -- 46 0.28
07/31/2016 803.94 328470 -8396 1000000 -671530 5119 918 573 0.00 0.00 -- -- 48 0.28
08/01/2016 801.41 320250 -8220 1000000 -679750 5091 977 590 e 0.00 0.00 -- -- 45 0.28
08/02/2016 798.82 311947 -- 1000000 -- 5062 907 563 e 0.00 0.00 -- -- 52 0.28
08/03/2016 796.81 305583 -6364 1000000 -694417 4039 860 563 e 0.00 0.00 -- -- 47 0.27
08/04/2016 795.01 299942 -5641 1000000 -700058 3595 781 495 e 0.00 0.00 -- -- 47 0.28
08/05/2016 793.37 294851 -5091 1000000 -705149 3363 825 497 0.00 0.00 -- -- 55 0.27
08/06/2016 791.69 289683 -5168 1000000 -710317 3254 677 497 0.00 0.00 -- -- 46 0.27
08/07/2016 789.97 284442 -5241 1000000 -715558 3271 657 406 e 0.00 0.00 -- -- 52 0.27
08/08/2016 788.30 279402 -5040 1000000 -720598 3149 637 496 0.00 0.00 -- -- 48 0.27
08/09/2016 786.71 274647 -4755 1000000 -725353 3109 739 406 0.00 0.00 -- -- 44 0.26
08/10/2016 785.08 269817 -4830 1000000 -730183 3109 700 429 0.00 0.00 -- -- 44 0.26
08/11/2016 783.55 265325 -4492 -- -- 3100 863 390 e 0.00 0.00 -- -- 51 0.28
08/12/2016 781.94 260641 -4684 -- -- 3093 759 356 e 0.00 0.00 -- -- 53 0.28
08/13/2016 780.33 256001 -4640 1000000 -743999 3051 738 429 e 0.00 0.00 -- -- 46 0.27
08/14/2016 778.68 251291 -4710 1000000 -748709 3047 700 429 e 0.00 0.00 -- -- 50 0.28
08/15/2016 777.16 246993 -4298 1000000 -753007 2971 831 255 e 0.00 0.00 -- -- 48 0.28
08/16/2016 775.63 242707 -4286 1000000 -757293 2921 786 255 e 0.00 0.00 -- -- 47 0.27
08/17/2016 774.07 238377 -4330 1000000 -761623 2935 777 254 e 0.00 0.00 -- -- 46 0.27
08/18/2016 772.46 233952 -4425 1000000 -766048 2978 771 221 e 0.00 0.00 -- -- 48 0.26
08/19/2016 770.78 229382 -4570 1000000 -- 2998 718 220 e 0.00 0.00 -- -- 48 0.25
08/20/2016 769.07 224778 -4604 1000000 -775222 2995 698 446 0.00 0.00 -- -- 51 0.26
08/21/2016 767.25 219933 -4845 1000000 -780067 3055 635 329 0.00 0.00 -- -- 47 0.25
08/22/2016 765.43 215144 -4789 1000000 -784856 3029 635 296 0.00 0.00 -- -- 41 0.22
08/23/2016 764.01 211446 -3698 1000000 -788554 2524 681 241 0.00 0.00 -- -- 51 0.25
08/24/2016 762.72 208116 -3330 1000000 -791884 2368 712 208 0.00 0.00 -- -- 49 0.25
08/25/2016 -- -- -- -- -- -- -- -- -- 0.00 -- -- -- --

Later | Latest

Warning! This data is preliminary and subject to revision.

Show PNF Map | Plot PNF Data | 1 Month PNF Data | Real-Time PNF Data | PNF Info